Sibley, Illinois
Current Conditions -  °F | °C
As of 2:15 AM on Monday 26 Jan 2015 (Local Time) from KTIP Reporting Station
Overcast Overcast  
Wind Chill: 19°   Ceiling: 1600
Heat Index: 29°   Visibility: 10mi
Dew Point: 23°   Wind: 12mph
Humidity: 80%   Direction: 360°N
Pressure: 29.96"   Gusts: NA
Location:  40.59°N, 88.38°W
Report Text: KTIP 260815Z AUTO 36010KT 10SM OVC016 M02/M05 A2996 RMK AO2 T10171048
Loading
Personal Weather Stations






























Interactive Weather Map New forecast layout! Learn more

10-Day Weather Forecast

Advertisements
Track Severe Weather on mobile